Thonotosassa, FL (33592)

5:42 AM EDT en Octubre 20, 2014 (GMT -0400)
Thonotosassa | Change Station
CLOSE
Current Station
Estación meteorológica personal
Location: Thonotosassa, FL
Altura: 53 ft
Estaciones meteorológicas cercanas

Alt 53 ft 28.06 °N, 82.32 °W | Updated 3 seconds ago

Muy nublado
Muy nublado
61.2 ° F
Sensación térmica 61.2 ° F
N
0.0
Viento Variable Viento desde Norte
Gusts 0.0 mph

Hoy
Alta -- | Baja -- ° F
--% Posibilidad de precipitaciones
Ayer
Alta -- | Baja -- ° F
Precip. -- pul
7:32 AM 6:54 PM
Creciente menguante, 12% visible
Presión 30.02 pul
Visibilidad 0.8 Millas
Nubes
Punto de rocío 61 ° F
Humedad 99%
Precipitaciones 0.00 pul
Espesor de la nieve No disponible.
UV No disponible.
Polen 7.10 de una escala de 12
Calidad del aire No disponible.
Flu Activity Local Activity
METAR KVDF 200935Z AUTO 00000KT 3/4SM BR VV005 16/15 A3002 RMK AO2

More Conditions Fewer Conditions

Presión 30.02 pul
Visibilidad 0.8 Millas
Nubes
Punto de rocío 61 ° F
Humedad 99%
Precipitaciones 0.00 pul
Espesor de la nieve No disponible.
UV No disponible.
Polen 7.10 de una escala de 12
Calidad del aire No disponible.
Flu Activity Local Activity
METAR KVDF 200935Z AUTO 00000KT 3/4SM BR VV005 16/15 A3002 RMK AO2

More Conditions Fewer Conditions

10-Day Weather Forecast

Almanac

Astronomía

Oct. 20, 2014 Salida Puesta
Hora real 7:32 AM EDT 6:54 PM EDT
Crepúsculo civil 7:08 AM EDT 7:18 PM EDT
Crepúsculo náutico 6:41 AM EDT 7:46 PM EDT
Crepúsculo astronómico 6:14 AM EDT 8:13 PM EDT
Luna 4:35 AM EDT 5:03 PM EDT
Horas de luz 12h 09m
Horas de luz
11h 22m
Creciente menguante, 12% of the Moon is Illuminated
Hoy
Creciente menguante
Oct 23
Nueva
Oct 30
Cuarto creciente
Nov 6
Luna llena
Nov 14
Cuarto menguante

Extremos de hoy

Máximos del estado Bajos del estado

Community

WunderPhotos

Upload Photos

1,763,325 ¡fotos cargadas!

Nearby

Grosos de nieve

Estación Profundido Altura
No tenemos constancia de nieve nueva.

Actividad de terremotos

Ciudad Distance Mag. Tiempo y dato
No hay informes recientes de la actividad sísmica.
Magnitud mínima muestra es 2,5.

Temperaturas de aguas costeras

Lugar Temperatura
St Petersburg, FL 82.0 ° F
Old Port Tampa, FL 79.0 ° F
McKay Bay Entrance, FL 81.0 ° F

Estaciones meteorológicas cercanas